sensor_id;sensor_type;location;lat;lon;timestamp;pressure;altitude;pressure_sealevel;temperature;humidity
2681;BME280;1350;42.134;24.708;2023-09-18T00:00:17;99878.19;;;20.38;100.00
2681;BME280;1350;42.134;24.708;2023-09-18T00:02:46;99870.84;;;20.40;100.00
2681;BME280;1350;42.134;24.708;2023-09-18T00:05:13;99877.88;;;20.31;100.00
2681;BME280;1350;42.134;24.708;2023-09-18T00:07:41;99868.28;;;20.38;100.00
2681;BME280;1350;42.134;24.708;2023-09-18T00:10:08;99871.56;;;20.42;100.00
2681;BME280;1350;42.134;24.708;2023-09-18T00:12:37;99870.66;;;20.32;100.00
2681;BME280;1350;42.134;24.708;2023-09-18T00:15:05;99866.56;;;20.37;100.00
2681;BME280;1350;42.134;24.708;2023-09-18T00:17:34;99867.94;;;20.32;100.00
2681;BME280;1350;42.134;24.708;2023-09-18T00:20:00;99864.09;;;20.25;100.00
2681;BME280;1350;42.134;24.708;2023-09-18T00:22:28;99870.16;;;20.17;100.00
2681;BME280;1350;42.134;24.708;2023-09-18T00:24:55;99870.03;;;20.19;100.00
2681;BME280;1350;42.134;24.708;2023-09-18T00:27:22;99869.22;;;20.28;100.00
2681;BME280;1350;42.134;24.708;2023-09-18T00:29:50;99875.00;;;20.23;100.00
2681;BME280;1350;42.134;24.708;2023-09-18T00:32:16;99883.78;;;20.25;100.00
2681;BME280;1350;42.134;24.708;2023-09-18T00:34:43;99874.78;;;20.36;100.00
2681;BME280;1350;42.134;24.708;2023-09-18T00:37:10;99880.19;;;20.36;100.00
2681;BME280;1350;42.134;24.708;2023-09-18T00:39:37;99884.06;;;20.22;100.00
2681;BME280;1350;42.134;24.708;2023-09-18T00:42:04;99878.41;;;20.25;100.00
2681;BME280;1350;42.134;24.708;2023-09-18T00:44:31;99880.78;;;20.19;100.00
2681;BME280;1350;42.134;24.708;2023-09-18T00:46:59;99874.41;;;20.20;100.00
2681;BME280;1350;42.134;24.708;2023-09-18T00:49:26;99884.19;;;20.21;100.00
2681;BME280;1350;42.134;24.708;2023-09-18T00:51:52;99870.06;;;20.07;100.00
2681;BME280;1350;42.134;24.708;2023-09-18T00:54:19;99877.00;;;20.10;100.00
2681;BME280;1350;42.134;24.708;2023-09-18T00:56:46;99878.53;;;20.03;100.00
2681;BME280;1350;42.134;24.708;2023-09-18T00:59:19;99882.94;;;20.04;100.00
2681;BME280;1350;42.134;24.708;2023-09-18T01:01:46;99880.06;;;20.17;100.00
2681;BME280;1350;42.134;24.708;2023-09-18T01:04:16;99867.72;;;20.14;100.00
2681;BME280;1350;42.134;24.708;2023-09-18T01:06:43;99877.88;;;20.10;100.00
2681;BME280;1350;42.134;24.708;2023-09-18T01:09:10;99868.69;;;20.13;100.00
2681;BME280;1350;42.134;24.708;2023-09-18T01:11:45;99874.00;;;20.03;100.00
2681;BME280;1350;42.134;24.708;2023-09-18T01:14:22;99881.56;;;20.09;100.00
2681;BME280;1350;42.134;24.708;2023-09-18T01:16:55;99873.41;;;20.00;100.00
2681;BME280;1350;42.134;24.708;2023-09-18T01:19:45;99872.50;;;20.10;100.00
2681;BME280;1350;42.134;24.708;2023-09-18T01:22:13;99873.13;;;20.14;100.00
2681;BME280;1350;42.134;24.708;2023-09-18T01:24:44;99875.44;;;20.07;100.00
2681;BME280;1350;42.134;24.708;2023-09-18T01:27:13;99868.81;;;20.11;100.00
2681;BME280;1350;42.134;24.708;2023-09-18T01:29:42;99870.53;;;20.13;100.00
2681;BME280;1350;42.134;24.708;2023-09-18T01:32:09;99878.38;;;20.16;100.00
2681;BME280;1350;42.134;24.708;2023-09-18T01:34:38;99870.44;;;20.14;100.00
2681;BME280;1350;42.134;24.708;2023-09-18T01:37:07;99869.03;;;20.20;100.00
2681;BME280;1350;42.134;24.708;2023-09-18T01:39:35;99869.19;;;20.07;100.00
2681;BME280;1350;42.134;24.708;2023-09-18T01:42:05;99870.34;;;20.04;100.00
2681;BME280;1350;42.134;24.708;2023-09-18T01:44:33;99862.63;;;20.21;100.00
2681;BME280;1350;42.134;24.708;2023-09-18T01:47:02;99872.03;;;20.26;100.00
2681;BME280;1350;42.134;24.708;2023-09-18T01:49:31;99869.44;;;20.15;100.00
2681;BME280;1350;42.134;24.708;2023-09-18T01:51:58;99867.75;;;20.24;100.00
2681;BME280;1350;42.134;24.708;2023-09-18T01:54:25;99876.38;;;20.18;100.00
2681;BME280;1350;42.134;24.708;2023-09-18T01:56:52;99876.97;;;20.21;100.00
2681;BME280;1350;42.134;24.708;2023-09-18T01:59:21;99871.50;;;20.32;100.00
2681;BME280;1350;42.134;24.708;2023-09-18T02:01:49;99875.28;;;20.20;100.00
2681;BME280;1350;42.134;24.708;2023-09-18T02:04:16;99870.66;;;20.11;100.00
2681;BME280;1350;42.134;24.708;2023-09-18T02:06:43;99874.28;;;20.21;100.00
2681;BME280;1350;42.134;24.708;2023-09-18T02:09:09;99876.09;;;20.21;100.00
2681;BME280;1350;42.134;24.708;2023-09-18T02:11:38;99883.41;;;20.09;100.00
2681;BME280;1350;42.134;24.708;2023-09-18T02:14:05;99879.47;;;20.13;100.00
2681;BME280;1350;42.134;24.708;2023-09-18T02:16:34;99876.19;;;20.09;100.00
2681;BME280;1350;42.134;24.708;2023-09-18T02:19:01;99871.75;;;20.08;100.00
2681;BME280;1350;42.134;24.708;2023-09-18T02:21:28;99869.78;;;20.10;100.00
2681;BME280;1350;42.134;24.708;2023-09-18T02:23:55;99866.91;;;20.02;100.00
2681;BME280;1350;42.134;24.708;2023-09-18T02:26:23;99869.13;;;19.97;100.00
2681;BME280;1350;42.134;24.708;2023-09-18T02:28:51;99871.00;;;19.97;100.00
2681;BME280;1350;42.134;24.708;2023-09-18T02:31:19;99873.41;;;20.00;100.00
2681;BME280;1350;42.134;24.708;2023-09-18T02:33:47;99876.94;;;20.00;100.00
2681;BME280;1350;42.134;24.708;2023-09-18T02:36:14;99874.84;;;20.04;100.00
2681;BME280;1350;42.134;24.708;2023-09-18T02:38:41;99870.59;;;20.01;100.00
2681;BME280;1350;42.134;24.708;2023-09-18T02:41:08;99874.59;;;20.07;100.00
2681;BME280;1350;42.134;24.708;2023-09-18T02:43:35;99882.16;;;20.13;100.00
2681;BME280;1350;42.134;24.708;2023-09-18T02:46:03;99888.88;;;20.19;100.00
2681;BME280;1350;42.134;24.708;2023-09-18T02:48:30;99886.66;;;20.33;100.00
2681;BME280;1350;42.134;24.708;2023-09-18T02:50:59;99886.13;;;20.39;100.00
2681;BME280;1350;42.134;24.708;2023-09-18T02:53:26;99883.72;;;20.36;100.00
2681;BME280;1350;42.134;24.708;2023-09-18T02:55:54;99879.66;;;20.21;100.00
2681;BME280;1350;42.134;24.708;2023-09-18T02:58:22;99892.72;;;20.26;100.00
2681;BME280;1350;42.134;24.708;2023-09-18T03:00:52;99885.25;;;20.29;100.00
2681;BME280;1350;42.134;24.708;2023-09-18T03:03:19;99886.41;;;20.36;100.00
2681;BME280;1350;42.134;24.708;2023-09-18T03:05:46;99879.59;;;20.32;100.00
2681;BME280;1350;42.134;24.708;2023-09-18T03:08:15;99893.31;;;20.29;100.00
2681;BME280;1350;42.134;24.708;2023-09-18T03:10:42;99883.66;;;20.27;100.00
2681;BME280;1350;42.134;24.708;2023-09-18T03:13:10;99882.28;;;20.32;100.00
2681;BME280;1350;42.134;24.708;2023-09-18T03:15:38;99887.66;;;20.32;100.00
2681;BME280;1350;42.134;24.708;2023-09-18T03:18:05;99887.94;;;20.29;100.00
2681;BME280;1350;42.134;24.708;2023-09-18T03:20:32;99888.41;;;20.34;100.00
2681;BME280;1350;42.134;24.708;2023-09-18T03:23:00;99897.25;;;20.25;100.00
2681;BME280;1350;42.134;24.708;2023-09-18T03:25:28;99894.53;;;20.16;100.00
2681;BME280;1350;42.134;24.708;2023-09-18T03:27:57;99897.25;;;20.25;100.00
2681;BME280;1350;42.134;24.708;2023-09-18T03:30:24;99892.13;;;20.22;100.00
2681;BME280;1350;42.134;24.708;2023-09-18T03:32:51;99892.72;;;20.26;100.00
2681;BME280;1350;42.134;24.708;2023-09-18T03:35:19;99891.44;;;20.20;100.00
2681;BME280;1350;42.134;24.708;2023-09-18T03:37:46;99894.13;;;20.20;100.00
2681;BME280;1350;42.134;24.708;2023-09-18T03:40:14;99896.97;;;20.19;100.00
2681;BME280;1350;42.134;24.708;2023-09-18T03:42:42;99892.88;;;20.24;100.00
2681;BME280;1350;42.134;24.708;2023-09-18T03:45:09;99897.44;;;20.33;100.00
2681;BME280;1350;42.134;24.708;2023-09-18T03:47:36;99898.50;;;20.21;100.00
2681;BME280;1350;42.134;24.708;2023-09-18T03:50:05;99893.78;;;20.34;100.00
2681;BME280;1350;42.134;24.708;2023-09-18T03:52:32;99894.00;;;20.22;100.00
2681;BME280;1350;42.134;24.708;2023-09-18T03:54:59;99892.91;;;20.34;100.00
2681;BME280;1350;42.134;24.708;2023-09-18T03:57:26;99896.97;;;20.19;100.00
2681;BME280;1350;42.134;24.708;2023-09-18T03:59:54;99895.63;;;20.13;100.00
2681;BME280;1350;42.134;24.708;2023-09-18T04:02:24;99893.31;;;20.29;100.00
2681;BME280;1350;42.134;24.708;2023-09-18T04:04:50;99897.63;;;20.41;100.00
2681;BME280;1350;42.134;24.708;2023-09-18T04:07:17;99908.75;;;20.48;100.00
2681;BME280;1350;42.134;24.708;2023-09-18T04:09:45;99901.66;;;20.56;100.00
2681;BME280;1350;42.134;24.708;2023-09-18T04:12:12;99902.41;;;20.58;100.00
2681;BME280;1350;42.134;24.708;2023-09-18T04:14:39;99901.06;;;20.53;100.00
2681;BME280;1350;42.134;24.708;2023-09-18T04:17:07;99901.13;;;20.62;100.00
2681;BME280;1350;42.134;24.708;2023-09-18T04:19:33;99901.47;;;20.48;100.00
2681;BME280;1350;42.134;24.708;2023-09-18T04:22:00;99901.41;;;20.59;100.00
2681;BME280;1350;42.134;24.708;2023-09-18T04:24:27;99905.03;;;20.49;100.00
2681;BME280;1350;42.134;24.708;2023-09-18T04:26:54;99902.34;;;20.49;100.00
2681;BME280;1350;42.134;24.708;2023-09-18T04:29:21;99900.25;;;20.52;100.00
2681;BME280;1350;42.134;24.708;2023-09-18T04:31:50;99900.38;;;20.51;100.00
2681;BME280;1350;42.134;24.708;2023-09-18T04:34:20;99897.75;;;20.60;100.00
2681;BME280;1350;42.134;24.708;2023-09-18T04:36:47;99907.16;;;20.75;100.00
2681;BME280;1350;42.134;24.708;2023-09-18T04:39:14;99899.75;;;20.77;100.00
2681;BME280;1350;42.134;24.708;2023-09-18T04:41:40;99897.78;;;20.79;100.00
2681;BME280;1350;42.134;24.708;2023-09-18T04:44:07;99898.16;;;20.65;100.00
2681;BME280;1350;42.134;24.708;2023-09-18T04:46:35;99902.44;;;20.68;100.00
2681;BME280;1350;42.134;24.708;2023-09-18T04:49:02;99896.88;;;20.60;100.00
2681;BME280;1350;42.134;24.708;2023-09-18T04:51:32;99898.56;;;20.61;100.00
2681;BME280;1350;42.134;24.708;2023-09-18T04:53:59;99904.50;;;20.55;100.00
2681;BME280;1350;42.134;24.708;2023-09-18T04:56:25;99897.00;;;20.58;100.00
2681;BME280;1350;42.134;24.708;2023-09-18T04:58:55;99900.59;;;20.68;100.00
2681;BME280;1350;42.134;24.708;2023-09-18T05:01:23;99907.28;;;20.74;100.00
2681;BME280;1350;42.134;24.708;2023-09-18T05:03:50;99904.91;;;20.80;100.00
2681;BME280;1350;42.134;24.708;2023-09-18T05:06:16;99905.13;;;20.68;100.00
2681;BME280;1350;42.134;24.708;2023-09-18T05:08:45;99907.16;;;20.75;100.00
2681;BME280;1350;42.134;24.708;2023-09-18T05:11:12;99906.16;;;20.76;100.00
2681;BME280;1350;42.134;24.708;2023-09-18T05:13:39;99905.47;;;20.84;100.00
2681;BME280;1350;42.134;24.708;2023-09-18T05:16:05;99909.06;;;20.94;100.00
2681;BME280;1350;42.134;24.708;2023-09-18T05:18:32;99915.78;;;20.99;100.00
2681;BME280;1350;42.134;24.708;2023-09-18T05:20:59;99910.38;;;20.99;100.00
2681;BME280;1350;42.134;24.708;2023-09-18T05:23:26;99911.09;;;21.01;100.00
2681;BME280;1350;42.134;24.708;2023-09-18T05:25:54;99910.03;;;21.23;100.00
2681;BME280;1350;42.134;24.708;2023-09-18T05:28:21;99905.22;;;21.26;100.00
2681;BME280;1350;42.134;24.708;2023-09-18T05:30:48;99904.22;;;21.46;100.00
2681;BME280;1350;42.134;24.708;2023-09-18T05:33:14;99898.94;;;21.45;100.00
2681;BME280;1350;42.134;24.708;2023-09-18T05:35:43;99900.25;;;21.50;100.00
2681;BME280;1350;42.134;24.708;2023-09-18T05:38:10;99898.09;;;21.63;100.00
2681;BME280;1350;42.134;24.708;2023-09-18T05:40:38;99898.09;;;21.63;100.00
2681;BME280;1350;42.134;24.708;2023-09-18T05:43:06;99899.44;;;21.79;100.00
2681;BME280;1350;42.134;24.708;2023-09-18T05:45:33;99900.84;;;21.83;100.00
2681;BME280;1350;42.134;24.708;2023-09-18T05:48:00;99898.44;;;21.99;100.00
2681;BME280;1350;42.134;24.708;2023-09-18T05:50:30;99897.81;;;22.14;100.00
2681;BME280;1350;42.134;24.708;2023-09-18T05:52:58;99901.34;;;22.34;100.00
2681;BME280;1350;42.134;24.708;2023-09-18T05:55:26;99901.84;;;22.47;100.00
2681;BME280;1350;42.134;24.708;2023-09-18T05:57:53;99896.41;;;22.66;100.00
2681;BME280;1350;42.134;24.708;2023-09-18T06:00:21;99905.09;;;22.69;100.00
2681;BME280;1350;42.134;24.708;2023-09-18T06:02:48;99903.66;;;22.65;100.00
2681;BME280;1350;42.134;24.708;2023-09-18T06:05:16;99904.56;;;23.38;100.00
2681;BME280;1350;42.134;24.708;2023-09-18T06:07:46;99904.53;;;24.51;92.50
2681;BME280;1350;42.134;24.708;2023-09-18T06:10:13;99903.13;;;25.40;85.50
2681;BME280;1350;42.134;24.708;2023-09-18T06:12:40;99908.31;;;26.07;80.77
2681;BME280;1350;42.134;24.708;2023-09-18T06:15:09;99909.44;;;26.52;78.77
2681;BME280;1350;42.134;24.708;2023-09-18T06:17:40;99922.56;;;26.25;77.39
2681;BME280;1350;42.134;24.708;2023-09-18T06:20:08;99921.78;;;26.95;74.89
2681;BME280;1350;42.134;24.708;2023-09-18T06:22:36;99925.09;;;27.13;71.67
2681;BME280;1350;42.134;24.708;2023-09-18T06:25:04;99920.25;;;27.92;68.88
2681;BME280;1350;42.134;24.708;2023-09-18T06:27:33;99922.16;;;27.61;67.04
2681;BME280;1350;42.134;24.708;2023-09-18T06:30:00;99928.00;;;27.12;68.57
2681;BME280;1350;42.134;24.708;2023-09-18T06:32:27;99932.28;;;27.45;67.74
2681;BME280;1350;42.134;24.708;2023-09-18T06:34:55;99929.22;;;27.09;68.51
2681;BME280;1350;42.134;24.708;2023-09-18T06:37:23;99927.97;;;27.89;64.94
2681;BME280;1350;42.134;24.708;2023-09-18T06:39:50;99928.81;;;28.27;62.41
2681;BME280;1350;42.134;24.708;2023-09-18T06:42:16;99929.06;;;28.17;62.74
2681;BME280;1350;42.134;24.708;2023-09-18T06:44:43;99937.69;;;27.53;63.94
2681;BME280;1350;42.134;24.708;2023-09-18T06:47:10;99934.22;;;27.36;63.88
2681;BME280;1350;42.134;24.708;2023-09-18T06:49:36;99927.47;;;26.54;67.40
2681;BME280;1350;42.134;24.708;2023-09-18T06:52:05;99929.00;;;25.68;71.35
2681;BME280;1350;42.134;24.708;2023-09-18T06:54:31;99926.31;;;24.92;76.79
2681;BME280;1350;42.134;24.708;2023-09-18T06:56:58;99925.25;;;24.77;78.74
2681;BME280;1350;42.134;24.708;2023-09-18T06:59:25;99922.00;;;25.08;77.40
2681;BME280;1350;42.134;24.708;2023-09-18T07:01:52;99927.84;;;25.29;76.25
2681;BME280;1350;42.134;24.708;2023-09-18T07:04:19;99926.28;;;24.59;79.34
2681;BME280;1350;42.134;24.708;2023-09-18T07:06:46;99920.81;;;25.52;76.46
2681;BME280;1350;42.134;24.708;2023-09-18T07:09:14;99925.25;;;26.65;70.16
2681;BME280;1350;42.134;24.708;2023-09-18T07:11:43;99926.00;;;26.98;66.53
2681;BME280;1350;42.134;24.708;2023-09-18T07:14:10;99923.41;;;27.12;65.01
2681;BME280;1350;42.134;24.708;2023-09-18T07:16:37;99925.34;;;26.96;64.45
2681;BME280;1350;42.134;24.708;2023-09-18T07:19:04;99923.81;;;27.40;63.42
2681;BME280;1350;42.134;24.708;2023-09-18T07:21:31;99923.56;;;27.80;61.31
2681;BME280;1350;42.134;24.708;2023-09-18T07:24:00;99925.09;;;27.13;62.14
2681;BME280;1350;42.134;24.708;2023-09-18T07:26:28;99930.03;;;26.39;66.40
2681;BME280;1350;42.134;24.708;2023-09-18T07:28:55;99927.84;;;27.52;63.46
2681;BME280;1350;42.134;24.708;2023-09-18T07:31:22;99936.78;;;27.60;60.82
2681;BME280;1350;42.134;24.708;2023-09-18T07:33:48;99928.22;;;27.71;62.07
2681;BME280;1350;42.134;24.708;2023-09-18T07:36:16;99927.03;;;28.71;58.95
2681;BME280;1350;42.134;24.708;2023-09-18T07:38:43;99933.19;;;29.16;56.63
2681;BME280;1350;42.134;24.708;2023-09-18T07:41:11;99934.72;;;29.69;54.62
2681;BME280;1350;42.134;24.708;2023-09-18T07:43:42;99927.97;;;29.36;54.06
2681;BME280;1350;42.134;24.708;2023-09-18T07:46:08;99924.09;;;29.45;53.71
2681;BME280;1350;42.134;24.708;2023-09-18T07:48:35;99932.81;;;29.19;53.89
2681;BME280;1350;42.134;24.708;2023-09-18T07:51:03;99935.75;;;29.68;51.72
2681;BME280;1350;42.134;24.708;2023-09-18T07:53:29;99927.16;;;29.71;50.90
2681;BME280;1350;42.134;24.708;2023-09-18T07:55:57;99923.41;;;30.63;48.80
2681;BME280;1350;42.134;24.708;2023-09-18T07:58:25;99928.38;;;31.49;47.01
2681;BME280;1350;42.134;24.708;2023-09-18T08:00:55;99916.63;;;29.53;50.03
2681;BME280;1350;42.134;24.708;2023-09-18T08:03:23;99922.31;;;29.37;51.93
2681;BME280;1350;42.134;24.708;2023-09-18T08:05:51;99918.41;;;29.61;50.77
2681;BME280;1350;42.134;24.708;2023-09-18T08:08:19;99910.94;;;29.05;51.97
2681;BME280;1350;42.134;24.708;2023-09-18T08:10:47;99916.59;;;28.74;52.71
2681;BME280;1350;42.134;24.708;2023-09-18T08:13:14;99914.16;;;29.58;51.27
2681;BME280;1350;42.134;24.708;2023-09-18T08:15:40;99919.94;;;29.49;51.01
2681;BME280;1350;42.134;24.708;2023-09-18T08:18:08;99922.25;;;30.51;49.53
2681;BME280;1350;42.134;24.708;2023-09-18T08:20:35;99922.31;;;30.85;48.52
2681;BME280;1350;42.134;24.708;2023-09-18T08:23:03;99907.88;;;32.37;46.39
2681;BME280;1350;42.134;24.708;2023-09-18T08:25:30;99906.78;;;32.84;44.93
2681;BME280;1350;42.134;24.708;2023-09-18T08:27:57;99903.00;;;32.33;45.53
2681;BME280;1350;42.134;24.708;2023-09-18T08:30:24;99894.94;;;30.30;48.42
2681;BME280;1350;42.134;24.708;2023-09-18T08:32:51;99891.94;;;29.47;48.98
2681;BME280;1350;42.134;24.708;2023-09-18T08:35:19;99906.03;;;29.29;50.12
2681;BME280;1350;42.134;24.708;2023-09-18T08:37:46;99895.09;;;27.60;53.58
2681;BME280;1350;42.134;24.708;2023-09-18T08:40:13;99897.81;;;28.42;53.01
2681;BME280;1350;42.134;24.708;2023-09-18T08:42:45;99898.50;;;29.17;51.67
2681;BME280;1350;42.134;24.708;2023-09-18T08:45:15;99888.38;;;29.46;51.77
2681;BME280;1350;42.134;24.708;2023-09-18T08:47:45;99892.69;;;30.19;50.41
2681;BME280;1350;42.134;24.708;2023-09-18T08:50:14;99893.06;;;31.33;48.01
2681;BME280;1350;42.134;24.708;2023-09-18T08:52:43;99892.63;;;31.96;46.65
2681;BME280;1350;42.134;24.708;2023-09-18T08:55:10;99893.97;;;30.71;48.24
2681;BME280;1350;42.134;24.708;2023-09-18T08:57:39;99896.28;;;30.19;47.88
2681;BME280;1350;42.134;24.708;2023-09-18T09:00:09;99890.09;;;30.59;48.42
2681;BME280;1350;42.134;24.708;2023-09-18T09:02:41;99885.94;;;31.45;46.52
2681;BME280;1350;42.134;24.708;2023-09-18T09:05:08;99886.06;;;30.83;46.99
2681;BME280;1350;42.134;24.708;2023-09-18T09:07:35;99875.28;;;30.75;47.56
2681;BME280;1350;42.134;24.708;2023-09-18T09:10:03;99874.25;;;30.06;48.76
2681;BME280;1350;42.134;24.708;2023-09-18T09:12:51;99872.03;;;29.32;50.71
2681;BME280;1350;42.134;24.708;2023-09-18T09:15:19;99878.78;;;29.72;49.35
2681;BME280;1350;42.134;24.708;2023-09-18T09:17:46;99876.84;;;29.66;48.78
2681;BME280;1350;42.134;24.708;2023-09-18T09:20:14;99882.06;;;28.30;50.83
2681;BME280;1350;42.134;24.708;2023-09-18T09:22:44;99864.94;;;28.58;51.22
2681;BME280;1350;42.134;24.708;2023-09-18T09:25:26;99875.13;;;27.82;53.07
2681;BME280;1350;42.134;24.708;2023-09-18T09:27:54;99869.66;;;27.90;53.00
2681;BME280;1350;42.134;24.708;2023-09-18T09:30:22;99876.28;;;27.42;53.70
2681;BME280;1350;42.134;24.708;2023-09-18T09:32:50;99867.00;;;28.56;51.99
2681;BME280;1350;42.134;24.708;2023-09-18T09:35:22;99867.50;;;28.00;51.51
2681;BME280;1350;42.134;24.708;2023-09-18T09:37:49;99883.63;;;28.47;51.08
2681;BME280;1350;42.134;24.708;2023-09-18T09:40:19;99868.59;;;29.44;49.57
2681;BME280;1350;42.134;24.708;2023-09-18T09:42:47;99872.75;;;30.80;46.88
2681;BME280;1350;42.134;24.708;2023-09-18T09:45:18;99878.19;;;31.68;45.17
2681;BME280;1350;42.134;24.708;2023-09-18T09:47:44;99874.31;;;31.36;45.19
2681;BME280;1350;42.134;24.708;2023-09-18T09:50:13;99875.66;;;30.72;46.34
2681;BME280;1350;42.134;24.708;2023-09-18T09:52:42;99872.41;;;29.29;49.53
2681;BME280;1350;42.134;24.708;2023-09-18T09:55:20;99867.91;;;28.63;51.08
2681;BME280;1350;42.134;24.708;2023-09-18T09:57:51;99863.75;;;29.46;50.69
2681;BME280;1350;42.134;24.708;2023-09-18T10:00:18;99854.16;;;28.28;51.04
2681;BME280;1350;42.134;24.708;2023-09-18T10:03:00;99852.41;;;28.12;52.36
2681;BME280;1350;42.134;24.708;2023-09-18T10:05:30;99850.97;;;28.82;51.15
2681;BME280;1350;42.134;24.708;2023-09-18T10:07:59;99851.06;;;29.39;50.12
2681;BME280;1350;42.134;24.708;2023-09-18T10:10:30;99845.47;;;29.83;49.12
2681;BME280;1350;42.134;24.708;2023-09-18T10:13:02;99851.84;;;28.83;49.82
2681;BME280;1350;42.134;24.708;2023-09-18T10:15:33;99852.72;;;28.32;51.75
2681;BME280;1350;42.134;24.708;2023-09-18T10:18:05;99849.13;;;28.17;52.42
2681;BME280;1350;42.134;24.708;2023-09-18T10:20:37;99846.44;;;28.89;51.47
2681;BME280;1350;42.134;24.708;2023-09-18T10:23:14;99845.13;;;29.35;49.29
2681;BME280;1350;42.134;24.708;2023-09-18T10:25:47;99845.59;;;29.39;48.35
2681;BME280;1350;42.134;24.708;2023-09-18T10:28:18;99831.91;;;29.75;47.95
2681;BME280;1350;42.134;24.708;2023-09-18T10:30:47;99827.94;;;30.05;47.36
2681;BME280;1350;42.134;24.708;2023-09-18T10:33:16;99819.13;;;29.82;46.91
2681;BME280;1350;42.134;24.708;2023-09-18T10:35:43;99819.72;;;29.56;46.98
2681;BME280;1350;42.134;24.708;2023-09-18T10:38:14;99817.81;;;30.20;46.35
2681;BME280;1350;42.134;24.708;2023-09-18T10:40:43;99817.16;;;29.69;46.63
2681;BME280;1350;42.134;24.708;2023-09-18T10:43:11;99819.56;;;29.22;47.39
2681;BME280;1350;42.134;24.708;2023-09-18T10:45:39;99816.03;;;28.20;48.66
2681;BME280;1350;42.134;24.708;2023-09-18T10:48:07;99800.78;;;28.83;48.05
2681;BME280;1350;42.134;24.708;2023-09-18T10:50:35;99806.44;;;28.82;48.04
2681;BME280;1350;42.134;24.708;2023-09-18T10:53:02;99803.69;;;29.32;47.28
2681;BME280;1350;42.134;24.708;2023-09-18T10:55:29;99803.50;;;29.76;46.47
2681;BME280;1350;42.134;24.708;2023-09-18T10:57:59;99800.91;;;29.25;46.24
2681;BME280;1350;42.134;24.708;2023-09-18T11:00:28;99798.00;;;29.69;44.28
2681;BME280;1350;42.134;24.708;2023-09-18T11:03:11;99804.19;;;30.67;43.31
2681;BME280;1350;42.134;24.708;2023-09-18T11:05:38;99799.03;;;30.44;43.90
2681;BME280;1350;42.134;24.708;2023-09-18T11:08:29;99794.31;;;29.62;43.29
2681;BME280;1350;42.134;24.708;2023-09-18T11:11:01;99789.16;;;29.52;44.22
2681;BME280;1350;42.134;24.708;2023-09-18T11:13:36;99783.59;;;29.39;44.29
2681;BME280;1350;42.134;24.708;2023-09-18T11:16:14;99774.69;;;29.73;43.79
2681;BME280;1350;42.134;24.708;2023-09-18T11:18:46;99781.09;;;29.87;43.86
2681;BME280;1350;42.134;24.708;2023-09-18T11:21:15;99783.66;;;29.46;44.81
2681;BME280;1350;42.134;24.708;2023-09-18T11:23:43;99776.50;;;29.24;45.16
2681;BME280;1350;42.134;24.708;2023-09-18T11:26:10;99776.97;;;28.77;45.36
2681;BME280;1350;42.134;24.708;2023-09-18T11:28:37;99773.38;;;29.27;44.61
2681;BME280;1350;42.134;24.708;2023-09-18T11:31:04;99779.63;;;29.42;43.54
2681;BME280;1350;42.134;24.708;2023-09-18T11:33:33;99782.22;;;29.71;43.17
2681;BME280;1350;42.134;24.708;2023-09-18T11:36:07;99767.13;;;30.30;43.46
2681;BME280;1350;42.134;24.708;2023-09-18T11:38:51;99777.09;;;29.83;42.71
2681;BME280;1350;42.134;24.708;2023-09-18T11:41:26;99777.81;;;30.59;42.32
2681;BME280;1350;42.134;24.708;2023-09-18T11:46:58;99770.47;;;31.13;41.18
2681;BME280;1350;42.134;24.708;2023-09-18T11:49:26;99771.66;;;30.17;41.81
2681;BME280;1350;42.134;24.708;2023-09-18T11:51:58;99771.94;;;29.10;43.26
2681;BME280;1350;42.134;24.708;2023-09-18T11:54:25;99764.41;;;28.97;44.29
2681;BME280;1350;42.134;24.708;2023-09-18T11:56:53;99752.53;;;28.55;45.07
2681;BME280;1350;42.134;24.708;2023-09-18T11:59:33;99749.09;;;28.82;45.10
2681;BME280;1350;42.134;24.708;2023-09-18T12:02:01;99743.38;;;29.12;44.84
2681;BME280;1350;42.134;24.708;2023-09-18T12:04:31;99754.38;;;29.19;43.69
2681;BME280;1350;42.134;24.708;2023-09-18T12:07:00;99743.50;;;28.40;44.62
2681;BME280;1350;42.134;24.708;2023-09-18T12:09:28;99742.81;;;29.02;44.35
2681;BME280;1350;42.134;24.708;2023-09-18T12:11:56;99741.22;;;29.50;43.49
2681;BME280;1350;42.134;24.708;2023-09-18T12:14:23;99741.66;;;29.75;42.64
2681;BME280;1350;42.134;24.708;2023-09-18T12:16:50;99737.59;;;29.92;42.26
2681;BME280;1350;42.134;24.708;2023-09-18T12:19:17;99736.19;;;29.75;42.66
2681;BME280;1350;42.134;24.708;2023-09-18T12:21:46;99735.59;;;28.95;44.02
2681;BME280;1350;42.134;24.708;2023-09-18T12:24:20;99728.59;;;28.71;44.59
2681;BME280;1350;42.134;24.708;2023-09-18T12:26:47;99721.47;;;28.41;44.97
2681;BME280;1350;42.134;24.708;2023-09-18T12:29:14;99724.75;;;28.66;44.75
2681;BME280;1350;42.134;24.708;2023-09-18T12:31:41;99725.69;;;28.44;45.21
2681;BME280;1350;42.134;24.708;2023-09-18T12:34:14;99724.44;;;28.46;44.34
2681;BME280;1350;42.134;24.708;2023-09-18T12:36:42;99718.28;;;28.52;44.15
2681;BME280;1350;42.134;24.708;2023-09-18T12:39:09;99711.22;;;28.58;44.03
2681;BME280;1350;42.134;24.708;2023-09-18T12:41:38;99726.00;;;28.49;44.73
2681;BME280;1350;42.134;24.708;2023-09-18T12:44:05;99715.53;;;28.67;44.33
2681;BME280;1350;42.134;24.708;2023-09-18T12:46:34;99722.44;;;28.05;44.59
2681;BME280;1350;42.134;24.708;2023-09-18T12:49:15;99708.97;;;28.32;44.85
2681;BME280;1350;42.134;24.708;2023-09-18T12:51:42;99706.84;;;28.63;44.01
2681;BME280;1350;42.134;24.708;2023-09-18T12:54:09;99707.75;;;28.49;44.41
2681;BME280;1350;42.134;24.708;2023-09-18T12:56:43;99706.28;;;28.03;44.27
2681;BME280;1350;42.134;24.708;2023-09-18T12:59:10;99691.56;;;28.19;43.98
2681;BME280;1350;42.134;24.708;2023-09-18T13:01:38;99697.56;;;28.58;43.91
2681;BME280;1350;42.134;24.708;2023-09-18T13:04:05;99694.81;;;28.72;43.98
2681;BME280;1350;42.134;24.708;2023-09-18T13:06:32;99693.47;;;28.03;44.45
2681;BME280;1350;42.134;24.708;2023-09-18T13:09:16;99690.94;;;27.87;44.63
2681;BME280;1350;42.134;24.708;2023-09-18T13:11:55;99696.59;;;27.49;45.37
2681;BME280;1350;42.134;24.708;2023-09-18T13:14:22;99680.28;;;27.92;44.63